Time;durP1;ratioP1;P1;durP2;ratioP2;P2;SDS_P1;SDS_P2;PMS_P1;PMS_P2;Temp;Humidity;BMP_temperature;BMP_pressure;BME280_temperature;BME280_humidity;BME280_pressure;Samples;Min_cycle;Max_cycle;Signal;HPM_P1;HPM_P2
2022/11/11 00:00:27;;;;;;;18.43;8.87;;;7.10;99.90;;;;;;4479298;28;10001929;-69
2022/11/11 00:02:56;;;;;;;20.27;8.63;;;7.10;99.90;;;;;;5050802;28;20041;-69
2022/11/11 00:05:22;;;;;;;22.08;8.15;;;7.10;99.90;;;;;;5018632;28;20579;-68
2022/11/11 00:07:48;;;;;;;27.95;9.23;;;7.10;99.90;;;;;;5037072;28;20489;-69
2022/11/11 00:10:14;;;;;;;19.02;8.77;;;7.20;99.90;;;;;;5021574;28;20199;-69
2022/11/11 00:12:40;;;;;;;19.50;8.77;;;7.10;99.90;;;;;;5023454;28;20170;-69
2022/11/11 00:15:06;;;;;;;21.55;8.50;;;7.10;99.90;;;;;;5020394;28;20437;-69
2022/11/11 00:25:51;;;;;;;18.13;8.93;;;7.20;99.90;;;;;;5021065;28;20063;-69
2022/11/11 00:28:17;;;;;;;25.00;9.50;;;7.20;99.90;;;;;;5024480;28;20029;-69
2022/11/11 00:30:43;;;;;;;25.85;10.02;;;7.10;99.90;;;;;;5030715;28;20053;-68
2022/11/11 00:33:09;;;;;;;25.08;10.23;;;7.20;99.90;;;;;;5019734;28;20046;-69
2022/11/11 00:35:53;;;;;;;22.17;10.40;;;7.20;99.90;;;;;;4994473;28;20595;-68
2022/11/11 00:41:03;;;;;;;28.10;12.70;;;7.20;99.90;;;;;;5005915;28;20101;-69
2022/11/11 00:43:29;;;;;;;27.00;13.02;;;7.20;99.90;;;;;;5000658;28;20820;-69
2022/11/11 00:50:57;;;;;;;29.02;13.35;;;7.20;99.90;;;;;;4994383;28;20029;-69
2022/11/11 00:51:24;;;;;;;26.75;13.55;;;7.10;99.90;;;;;;5009359;28;20111;-69
2022/11/11 00:53:50;;;;;;;29.00;13.90;;;7.20;99.90;;;;;;5009212;28;20025;-69
2022/11/11 00:56:16;;;;;;;38.05;15.55;;;7.10;99.90;;;;;;5003983;28;20127;-68
2022/11/11 00:58:41;;;;;;;32.55;14.45;;;7.10;99.90;;;;;;5001906;28;20049;-69
2022/11/11 01:01:07;;;;;;;34.13;16.05;;;7.10;99.90;;;;;;5009773;28;20032;-68
2022/11/11 01:03:32;;;;;;;36.92;16.33;;;7.10;99.90;;;;;;4996923;28;20037;-68
2022/11/11 01:06:02;;;;;;;39.95;16.52;;;7.10;99.90;;;;;;4996084;28;20038;-68
2022/11/11 01:08:29;;;;;;;34.13;15.82;;;7.10;99.90;;;;;;4996011;28;20021;-69
2022/11/11 01:10:54;;;;;;;32.35;16.33;;;7.10;99.90;;;;;;4993541;28;20176;-69
2022/11/11 01:13:22;;;;;;;32.85;15.93;;;7.00;99.90;;;;;;4995312;28;20200;-69
2022/11/11 01:15:50;;;;;;;39.65;16.83;;;7.00;99.90;;;;;;4993581;28;20034;-68
2022/11/11 01:18:19;;;;;;;32.35;15.40;;;7.00;99.90;;;;;;4994861;28;20448;-69
2022/11/11 01:20:45;;;;;;;32.35;16.27;;;7.00;99.90;;;;;;5009462;28;20025;-69
2022/11/11 01:23:12;;;;;;;35.78;16.90;;;7.00;99.90;;;;;;5016900;28;20173;-69
2022/11/11 01:25:41;;;;;;;38.22;17.77;;;7.00;99.90;;;;;;5016646;28;20013;-69
2022/11/11 01:28:07;;;;;;;41.85;17.65;;;7.00;99.90;;;;;;5010261;28;20028;-69
2022/11/11 01:30:35;;;;;;;39.38;17.30;;;7.00;99.90;;;;;;5010942;28;20053;-69
2022/11/11 01:33:01;;;;;;;41.78;17.95;;;6.90;99.90;;;;;;5007949;28;20037;-69
2022/11/11 01:35:27;;;;;;;42.20;18.23;;;7.00;99.90;;;;;;5008962;28;20034;-69
2022/11/11 01:37:53;;;;;;;42.45;18.13;;;7.00;99.90;;;;;;5001399;28;20538;-69
2022/11/11 01:40:19;;;;;;;41.13;18.40;;;7.00;99.90;;;;;;5007439;28;20037;-69
2022/11/11 01:42:49;;;;;;;41.05;17.65;;;7.00;99.90;;;;;;5005017;28;20029;-69
2022/11/11 01:45:53;;;;;;;40.13;19.08;;;7.00;99.90;;;;;;5022572;28;20788;-68
2022/11/11 01:52:01;;;;;;;44.95;19.73;;;7.10;99.90;;;;;;5006587;28;20152;-68
2022/11/11 01:54:50;;;;;;;41.05;21.20;;;7.10;99.90;;;;;;5009962;28;20041;-68
2022/11/11 01:57:27;;;;;;;47.72;22.30;;;7.20;99.90;;;;;;4993479;28;21641;-68
2022/11/11 01:59:59;;;;;;;44.20;20.48;;;7.20;99.90;;;;;;5000049;28;20436;-68
2022/11/11 02:02:37;;;;;;;44.58;21.38;;;7.20;99.90;;;;;;4994531;28;20030;-68
2022/11/11 02:08:01;;;;;;;45.75;20.90;;;7.30;99.90;;;;;;5003475;28;20039;-68
2022/11/11 02:10:29;;;;;;;43.53;21.58;;;7.30;99.90;;;;;;4997087;28;20040;-69
2022/11/11 02:15:39;;;;;;;40.83;19.92;;;7.40;99.90;;;;;;4993471;28;20059;-69
2022/11/11 02:18:05;;;;;;;44.05;20.65;;;7.40;99.90;;;;;;5008925;28;20033;-68
2022/11/11 02:20:38;;;;;;;41.42;20.50;;;7.40;99.90;;;;;;5009134;28;20026;-68
2022/11/11 02:23:13;;;;;;;42.80;21.63;;;7.40;99.90;;;;;;5010009;28;20064;-69
2022/11/11 02:25:43;;;;;;;43.90;20.05;;;7.30;99.90;;;;;;5006994;28;20044;-68
2022/11/11 02:28:10;;;;;;;42.20;21.40;;;7.40;99.90;;;;;;5011921;28;20141;-68
2022/11/11 02:30:36;;;;;;;43.30;21.83;;;7.30;99.90;;;;;;5021238;28;20445;-68
2022/11/11 02:33:02;;;;;;;44.17;20.92;;;7.30;99.90;;;;;;5022822;28;20045;-69
2022/11/11 02:35:30;;;;;;;41.00;20.20;;;7.30;99.90;;;;;;5010033;28;20443;-68
2022/11/11 02:37:56;;;;;;;42.10;20.02;;;7.40;99.90;;;;;;5010672;28;20033;-69
2022/11/11 02:43:25;;;;;;;46.33;19.60;;;7.40;99.90;;;;;;5015363;28;20723;-68
2022/11/11 02:45:50;;;;;;;44.15;20.63;;;7.40;99.90;;;;;;5009748;28;20024;-69
2022/11/11 02:48:16;;;;;;;39.10;19.85;;;7.50;99.90;;;;;;5008541;28;20029;-69
2022/11/11 02:50:41;;;;;;;44.63;20.15;;;7.50;99.90;;;;;;5012898;28;20040;-69
2022/11/11 02:53:07;;;;;;;39.95;19.80;;;7.50;99.90;;;;;;5018326;28;20038;-68
2022/11/11 02:55:33;;;;;;;39.95;21.13;;;7.50;99.90;;;;;;5009788;28;20034;-69
2022/11/11 02:57:59;;;;;;;45.60;21.00;;;7.50;99.90;;;;;;4999890;28;20121;-69
2022/11/11 03:00:24;;;;;;;45.30;21.27;;;7.50;99.90;;;;;;4998090;28;20029;-68
2022/11/11 03:02:50;;;;;;;42.72;20.98;;;7.50;99.90;;;;;;5013709;28;20105;-68
2022/11/11 03:05:16;;;;;;;44.33;20.83;;;7.50;99.90;;;;;;5017797;28;20453;-69
2022/11/11 03:07:41;;;;;;;44.63;20.35;;;7.50;99.90;;;;;;5010937;28;20025;-68
2022/11/11 03:10:07;;;;;;;43.15;21.60;;;7.50;99.90;;;;;;5010216;28;20029;-69
2022/11/11 03:12:33;;;;;;;45.95;22.17;;;7.50;99.90;;;;;;5020366;28;20112;-68
2022/11/11 03:14:58;;;;;;;42.92;21.13;;;7.50;99.90;;;;;;5018713;28;20125;-68
2022/11/11 03:17:39;;;;;;;44.35;21.08;;;7.50;99.90;;;;;;5007139;28;20116;-69
2022/11/11 03:23:07;;;;;;;41.10;20.98;;;7.50;99.90;;;;;;5013895;28;20037;-68
2022/11/11 03:25:38;;;;;;;40.35;19.95;;;7.50;99.90;;;;;;5012328;28;20383;-68
2022/11/11 03:28:18;;;;;;;39.60;20.17;;;7.60;99.90;;;;;;5011057;28;20072;-68
2022/11/11 03:30:45;;;;;;;37.47;18.85;;;7.60;99.90;;;;;;5007335;28;20517;-68
2022/11/11 03:33:12;;;;;;;35.17;18.75;;;7.60;99.90;;;;;;5015813;28;20087;-68
2022/11/11 03:35:38;;;;;;;37.25;18.88;;;7.60;99.90;;;;;;5016605;28;20508;-69
2022/11/11 03:38:15;;;;;;;39.30;18.70;;;7.60;99.90;;;;;;5010938;28;20040;-69
2022/11/11 03:40:44;;;;;;;39.22;19.95;;;7.60;99.90;;;;;;5016852;28;20029;-68
2022/11/11 03:43:11;;;;;;;36.67;19.52;;;7.60;99.90;;;;;;5011512;28;20045;-68
2022/11/11 03:45:37;;;;;;;37.55;18.40;;;7.60;99.90;;;;;;5008306;28;20080;-68
2022/11/11 03:48:04;;;;;;;35.65;19.25;;;7.60;99.90;;;;;;5007694;28;20135;-68
2022/11/11 03:50:30;;;;;;;42.58;19.83;;;7.50;99.90;;;;;;5010756;28;20034;-69
2022/11/11 03:52:55;;;;;;;34.20;18.15;;;7.50;99.90;;;;;;5010296;28;20052;-68
2022/11/11 03:55:21;;;;;;;36.40;19.20;;;7.60;99.90;;;;;;5006363;28;20068;-69
2022/11/11 03:57:47;;;;;;;41.47;19.33;;;7.50;99.90;;;;;;5016422;28;20136;-69
2022/11/11 04:00:15;;;;;;;37.60;18.48;;;7.60;99.90;;;;;;5015060;28;20030;-69
2022/11/11 04:11:04;;;;;;;38.28;18.55;;;7.50;99.90;;;;;;5008793;28;20394;-69
2022/11/11 04:16:14;;;;;;;37.22;19.10;;;7.50;99.90;;;;;;5012520;28;20235;-69
2022/11/11 04:21:42;;;;;;;38.65;19.33;;;7.40;99.90;;;;;;5011788;28;20284;-69
2022/11/11 04:27:17;;;;;;;41.63;18.67;;;7.50;99.90;;;;;;5052004;28;20049;-68
2022/11/11 04:29:45;;;;;;;38.95;19.90;;;7.40;99.90;;;;;;5027261;28;20037;-69
2022/11/11 04:32:34;;;;;;;43.92;20.15;;;7.40;99.90;;;;;;5009247;28;20038;-69
2022/11/11 04:35:03;;;;;;;37.70;18.95;;;7.40;99.90;;;;;;5008469;28;20037;-68
2022/11/11 04:37:43;;;;;;;40.88;19.30;;;7.40;99.90;;;;;;5017071;28;20033;-68
2022/11/11 04:42:53;;;;;;;36.17;19.25;;;7.40;99.90;;;;;;5014072;28;20024;-68
2022/11/11 04:45:29;;;;;;;36.08;18.95;;;7.40;99.90;;;;;;5011190;28;20025;-69
2022/11/11 04:47:56;;;;;;;43.72;19.23;;;7.30;99.90;;;;;;5008328;28;20396;-69
2022/11/11 04:50:23;;;;;;;39.10;20.35;;;7.30;99.90;;;;;;5009135;28;20308;-68
2022/11/11 04:52:49;;;;;;;38.65;19.40;;;7.30;99.90;;;;;;5013261;28;20052;-68
2022/11/11 04:57:59;;;;;;;40.13;19.70;;;7.30;99.90;;;;;;5017989;28;20451;-68
2022/11/11 05:00:24;;;;;;;46.15;19.55;;;7.30;99.90;;;;;;5006358;28;20029;-69
2022/11/11 05:11:06;;;;;;;40.78;19.83;;;7.20;99.90;;;;;;5016261;28;20114;-68
2022/11/11 05:21:59;;;;;;;46.65;21.00;;;7.20;99.90;;;;;;5014753;28;20099;-68
2022/11/11 05:27:09;;;;;;;38.53;19.92;;;7.20;99.90;;;;;;5009481;28;20061;-68
2022/11/11 05:29:35;;;;;;;39.22;20.05;;;7.10;99.90;;;;;;5011950;28;20140;-68
2022/11/11 05:32:01;;;;;;;41.58;19.80;;;7.10;99.90;;;;;;5013806;28;20066;-68
2022/11/11 05:34:26;;;;;;;46.53;20.92;;;7.10;99.90;;;;;;5012604;28;20037;-68
2022/11/11 05:36:52;;;;;;;42.63;20.45;;;7.10;99.90;;;;;;5010796;28;20482;-68
2022/11/11 05:39:17;;;;;;;40.90;20.65;;;7.20;99.90;;;;;;5016622;28;20489;-68
2022/11/11 05:41:43;;;;;;;38.83;20.55;;;7.20;99.90;;;;;;5014524;28;20033;-68
2022/11/11 05:44:09;;;;;;;43.53;20.83;;;7.20;99.90;;;;;;5012984;28;20033;-68
2022/11/11 05:46:34;;;;;;;43.53;20.92;;;7.20;99.90;;;;;;5010315;28;20458;-68
2022/11/11 05:49:15;;;;;;;44.08;21.17;;;7.20;99.90;;;;;;5010073;28;20030;-68
2022/11/11 05:51:44;;;;;;;38.42;20.30;;;7.20;99.90;;;;;;5011764;28;20117;-68
2022/11/11 05:54:10;;;;;;;42.53;19.95;;;7.20;99.90;;;;;;5009747;28;20030;-68
2022/11/11 05:56:36;;;;;;;40.45;20.45;;;7.20;99.90;;;;;;5002773;28;20061;-68
2022/11/11 05:59:03;;;;;;;37.10;19.65;;;7.10;99.90;;;;;;5008225;28;20030;-68
2022/11/11 06:01:28;;;;;;;39.22;19.15;;;7.10;99.90;;;;;;5011779;28;20044;-68
2022/11/11 06:03:54;;;;;;;41.67;19.85;;;7.10;99.90;;;;;;5011386;28;20029;-68
2022/11/11 06:06:20;;;;;;;35.28;18.77;;;7.10;99.90;;;;;;5005857;28;20087;-68
2022/11/11 06:08:45;;;;;;;52.28;24.35;;;7.10;99.90;;;;;;5010468;28;20707;-68
2022/11/11 06:11:11;;;;;;;52.17;25.95;;;7.10;99.90;;;;;;5015733;28;20095;-68
2022/11/11 06:13:37;;;;;;;47.28;23.77;;;7.10;99.90;;;;;;5011887;28;20036;-68
2022/11/11 06:16:03;;;;;;;53.60;26.00;;;7.10;99.90;;;;;;5013691;28;20435;-68
2022/11/11 06:18:29;;;;;;;46.42;22.38;;;7.10;99.90;;;;;;5009011;28;20055;-68
2022/11/11 06:20:56;;;;;;;43.97;23.02;;;7.10;99.90;;;;;;5010362;28;20033;-68
2022/11/11 06:23:22;;;;;;;46.92;23.10;;;7.10;99.90;;;;;;5009574;28;20026;-68
2022/11/11 06:28:33;;;;;;;44.90;21.35;;;7.10;99.90;;;;;;5009273;28;20044;-69
2022/11/11 06:30:58;;;;;;;42.00;21.63;;;7.10;99.90;;;;;;5015238;28;20123;-69
2022/11/11 06:33:24;;;;;;;44.90;21.98;;;7.10;99.90;;;;;;5010151;28;20489;-68
2022/11/11 06:35:50;;;;;;;45.05;22.85;;;7.10;99.90;;;;;;5006737;28;20104;-68
2022/11/11 06:38:16;;;;;;;47.67;23.13;;;7.10;99.90;;;;;;5016148;28;20448;-68
2022/11/11 06:40:42;;;;;;;44.08;22.73;;;7.10;99.90;;;;;;5007647;28;20033;-68
2022/11/11 06:43:08;;;;;;;44.72;21.73;;;7.10;99.90;;;;;;5014188;28;20657;-68
2022/11/11 06:45:35;;;;;;;46.80;22.70;;;7.10;99.90;;;;;;5010197;28;20053;-68
2022/11/11 06:48:01;;;;;;;42.22;21.92;;;7.10;99.90;;;;;;5008045;28;20065;-68
2022/11/11 06:50:28;;;;;;;40.17;20.17;;;7.10;99.90;;;;;;5009439;28;20029;-68
2022/11/11 06:52:54;;;;;;;44.30;22.45;;;7.00;99.90;;;;;;5010505;28;20650;-68
2022/11/11 06:55:20;;;;;;;44.35;21.58;;;7.00;99.90;;;;;;5004481;28;20173;-68
2022/11/11 06:57:45;;;;;;;43.95;20.42;;;7.00;99.90;;;;;;5004301;28;20034;-68
2022/11/11 07:00:12;;;;;;;42.85;20.70;;;7.00;99.90;;;;;;5010928;28;20112;-68
2022/11/11 07:02:37;;;;;;;45.17;21.88;;;7.10;99.90;;;;;;5020279;28;20095;-68
2022/11/11 07:05:03;;;;;;;51.90;25.88;;;7.10;99.90;;;;;;5020221;28;20029;-68
2022/11/11 07:07:29;;;;;;;67.25;30.65;;;7.00;99.90;;;;;;5012871;28;20033;-67
2022/11/11 07:09:54;;;;;;;62.30;28.25;;;7.00;99.90;;;;;;5015328;28;20401;-68
2022/11/11 07:12:21;;;;;;;61.65;27.00;;;7.00;99.90;;;;;;5008033;28;20106;-68
2022/11/11 07:14:47;;;;;;;67.57;28.38;;;7.00;99.90;;;;;;5021562;28;20272;-68
2022/11/11 07:17:13;;;;;;;67.40;27.35;;;7.00;99.90;;;;;;5010282;28;20510;-68
2022/11/11 07:19:38;;;;;;;70.35;27.77;;;7.00;99.90;;;;;;5017822;28;20050;-68
2022/11/11 07:22:04;;;;;;;75.20;30.40;;;7.10;99.90;;;;;;5016137;28;20025;-68
2022/11/11 07:24:30;;;;;;;71.13;27.88;;;7.10;99.90;;;;;;5013477;28;20038;-68
2022/11/11 07:26:56;;;;;;;66.55;28.50;;;7.10;99.90;;;;;;5007068;28;20025;-68
2022/11/11 07:29:21;;;;;;;65.32;27.23;;;7.10;99.90;;;;;;5015559;28;20036;-68
2022/11/11 07:31:47;;;;;;;66.50;28.13;;;7.10;99.90;;;;;;5017712;28;20037;-68
2022/11/11 07:34:13;;;;;;;64.78;26.73;;;7.20;99.90;;;;;;5004767;28;20029;-68
2022/11/11 07:36:38;;;;;;;60.15;27.20;;;7.20;99.90;;;;;;5024627;28;20040;-68
2022/11/11 07:39:04;;;;;;;63.22;26.85;;;7.20;99.90;;;;;;5020343;28;20021;-68
2022/11/11 07:41:29;;;;;;;61.70;25.83;;;7.20;99.90;;;;;;5013158;28;20084;-68
2022/11/11 07:43:55;;;;;;;59.97;24.95;;;7.30;99.90;;;;;;5008498;28;20104;-69
2022/11/11 07:46:21;;;;;;;61.25;25.98;;;7.30;99.90;;;;;;5010098;28;20049;-68
2022/11/11 07:48:46;;;;;;;59.28;24.75;;;7.30;99.90;;;;;;5017772;28;20080;-68
2022/11/11 07:51:12;;;;;;;53.10;24.52;;;7.30;99.90;;;;;;5013348;28;20504;-68
2022/11/11 07:53:37;;;;;;;51.05;24.80;;;7.30;99.90;;;;;;5014367;28;20077;-69
2022/11/11 07:56:03;;;;;;;55.60;24.90;;;7.30;99.90;;;;;;5012063;28;20410;-68
2022/11/11 07:58:29;;;;;;;49.42;23.75;;;7.40;99.90;;;;;;5011795;28;20033;-68
2022/11/11 08:00:54;;;;;;;47.35;24.23;;;7.40;99.90;;;;;;5013806;28;20029;-68
2022/11/11 08:03:20;;;;;;;46.55;24.38;;;7.40;99.90;;;;;;5010459;28;20025;-68
2022/11/11 08:05:45;;;;;;;45.28;22.80;;;7.50;99.90;;;;;;5007916;28;20032;-68
2022/11/11 08:08:11;;;;;;;49.15;22.98;;;7.50;99.90;;;;;;5012580;28;20552;-70
2022/11/11 08:10:37;;;;;;;43.47;22.80;;;7.60;99.90;;;;;;5021575;28;20121;-70
2022/11/11 08:15:47;;;;;;;46.35;23.13;;;7.60;99.90;;;;;;5010288;28;20083;-70
2022/11/11 08:18:13;;;;;;;45.40;22.92;;;7.70;99.90;;;;;;5010652;28;20034;-70
2022/11/11 08:20:39;;;;;;;51.47;25.27;;;7.70;99.90;;;;;;5014061;28;20068;-70
2022/11/11 08:23:08;;;;;;;55.17;26.20;;;7.80;99.90;;;;;;5017935;28;20025;-70
2022/11/11 08:25:35;;;;;;;44.33;23.63;;;7.80;99.90;;;;;;5012100;28;20034;-69
2022/11/11 08:28:02;;;;;;;51.42;24.38;;;7.90;99.90;;;;;;5013578;28;20053;-69
2022/11/11 08:30:28;;;;;;;50.85;25.05;;;7.90;99.90;;;;;;5019461;28;20099;-69
2022/11/11 08:32:58;;;;;;;49.38;24.77;;;8.00;99.90;;;;;;5012109;28;20026;-69
2022/11/11 08:35:25;;;;;;;52.10;25.40;;;8.00;99.90;;;;;;5020093;28;20508;-70
2022/11/11 08:37:51;;;;;;;46.33;24.75;;;8.10;99.90;;;;;;5016991;28;20367;-69
2022/11/11 08:40:17;;;;;;;46.85;23.95;;;8.20;99.90;;;;;;5014923;28;20032;-70
2022/11/11 08:42:43;;;;;;;49.15;23.90;;;8.20;99.90;;;;;;5014789;28;20033;-70
2022/11/11 08:45:09;;;;;;;49.60;24.30;;;8.20;99.90;;;;;;5014017;28;20445;-70
2022/11/11 08:47:35;;;;;;;47.30;24.63;;;8.30;99.90;;;;;;5012411;28;20029;-70
2022/11/11 08:50:02;;;;;;;48.90;23.95;;;8.40;99.90;;;;;;5019290;28;20041;-70
2022/11/11 08:52:27;;;;;;;52.13;25.55;;;8.40;99.90;;;;;;5020687;28;20095;-70
2022/11/11 08:54:54;;;;;;;43.30;21.80;;;;;;;;;;5007041;28;20087;-69
2022/11/11 08:57:20;;;;;;;42.67;23.15;;;;;;;;;;5016509;28;20129;-69
2022/11/11 08:59:45;;;;;;;51.70;25.25;;;8.50;99.90;;;;;;5013727;28;20493;-69
2022/11/11 09:02:12;;;;;;;47.35;22.95;;;8.50;99.90;;;;;;5013129;28;22169;-69
2022/11/11 09:04:39;;;;;;;51.33;25.58;;;8.60;99.90;;;;;;5016958;28;20542;-69
2022/11/11 09:07:09;;;;;;;40.92;23.00;;;8.60;99.90;;;;;;5015115;28;20075;-69
2022/11/11 09:09:35;;;;;;;44.47;22.88;;;8.70;99.90;;;;;;5010897;28;20155;-69
2022/11/11 09:12:01;;;;;;;44.63;22.63;;;8.70;99.90;;;;;;5011627;28;20121;-69
2022/11/11 09:14:27;;;;;;;41.60;22.83;;;8.70;99.90;;;;;;5015180;28;20037;-69
2022/11/11 09:16:53;;;;;;;49.92;21.40;;;8.80;99.90;;;;;;5008630;28;20250;-69
2022/11/11 09:19:18;;;;;;;41.67;23.63;;;8.80;99.90;;;;;;5013395;28;20037;-69
2022/11/11 09:21:44;;;;;;;47.10;24.65;;;8.90;99.90;;;;;;5015156;28;20549;-69
2022/11/11 09:24:10;;;;;;;44.85;25.38;;;9.00;99.90;;;;;;5010988;28;20030;-69
2022/11/11 09:26:35;;;;;;;45.30;22.85;;;9.00;99.90;;;;;;5017022;28;20117;-69
2022/11/11 09:29:01;;;;;;;44.78;21.63;;;9.10;99.90;;;;;;5017593;28;20062;-69
2022/11/11 09:31:27;;;;;;;39.50;22.13;;;9.10;99.90;;;;;;5013568;28;20539;-69
2022/11/11 09:33:52;;;;;;;36.20;20.75;;;9.20;99.90;;;;;;5012104;28;20064;-69
2022/11/11 09:36:19;;;;;;;34.72;20.17;;;9.20;99.90;;;;;;5010989;28;20080;-69
2022/11/11 09:38:44;;;;;;;39.65;20.98;;;9.20;99.90;;;;;;5015250;28;20022;-68
2022/11/11 09:41:29;;;;;;;38.75;21.17;;;9.20;99.90;;;;;;5014877;28;20500;-69
2022/11/11 09:44:02;;;;;;;33.47;20.13;;;9.20;99.90;;;;;;5021994;28;20096;-69
2022/11/11 09:46:57;;;;;;;36.05;19.40;;;9.30;99.90;;;;;;5011667;28;20057;-68
2022/11/11 09:50:01;;;;;;;32.35;18.58;;;9.50;99.90;;;;;;5015684;28;20037;-69
2022/11/11 09:52:33;;;;;;;35.70;19.30;;;9.50;99.90;;;;;;5015382;28;20030;-69
2022/11/11 09:55:05;;;;;;;36.22;21.73;;;9.50;99.90;;;;;;5017357;28;20036;-69
2022/11/11 09:57:38;;;;;;;36.90;19.10;;;9.50;99.90;;;;;;5017399;28;20080;-69
2022/11/11 10:00:15;;;;;;;34.25;19.35;;;9.50;99.90;;;;;;5019940;28;20029;-69
2022/11/11 10:02:48;;;;;;;34.53;19.42;;;9.60;99.90;;;;;;5016260;28;20034;-69
2022/11/11 10:05:25;;;;;;;29.45;18.48;;;9.70;99.90;;;;;;5009524;28;20053;-69
2022/11/11 10:07:53;;;;;;;34.97;18.98;;;9.80;99.90;;;;;;5013637;28;20378;-69
2022/11/11 10:10:33;;;;;;;33.45;18.63;;;9.80;99.90;;;;;;5018232;28;20032;-69
2022/11/11 10:12:59;;;;;;;34.60;19.02;;;9.90;99.90;;;;;;5011749;28;20120;-69
2022/11/11 10:15:35;;;;;;;33.95;18.60;;;9.90;99.90;;;;;;5018186;28;20033;-69
2022/11/11 10:18:11;;;;;;;32.78;17.83;;;9.90;99.90;;;;;;5021729;28;20386;-69
2022/11/11 10:20:41;;;;;;;27.67;17.13;;;10.00;99.90;;;;;;5018411;28;20254;-69
2022/11/11 10:23:14;;;;;;;28.95;16.80;;;10.00;99.90;;;;;;5007101;28;20034;-69
2022/11/11 10:25:54;;;;;;;28.33;16.25;;;10.00;99.90;;;;;;5027415;28;20396;-69
2022/11/11 10:28:25;;;;;;;29.77;16.40;;;10.10;99.90;;;;;;5013584;28;20064;-69
2022/11/11 10:30:51;;;;;;;30.75;16.80;;;10.20;99.90;;;;;;5012699;28;20504;-69
2022/11/11 10:33:29;;;;;;;26.73;16.42;;;10.30;99.90;;;;;;5015675;28;20416;-69
2022/11/11 10:35:57;;;;;;;27.58;15.80;;;10.30;99.90;;;;;;5019909;28;20375;-69
2022/11/11 10:38:45;;;;;;;24.98;14.88;;;10.30;99.90;;;;;;5006855;28;20478;-69
2022/11/11 10:41:18;;;;;;;28.42;15.85;;;10.30;99.90;;;;;;5014065;28;20065;-69
2022/11/11 10:43:46;;;;;;;36.13;18.85;;;10.40;99.90;;;;;;5018917;28;20187;-69
2022/11/11 10:46:26;;;;;;;32.63;18.65;;;10.40;99.90;;;;;;5013595;28;20029;-69
2022/11/11 10:49:06;;;;;;;29.30;17.20;;;;;;;;;;5010761;28;20029;-69
2022/11/11 10:51:42;;;;;;;29.15;15.73;;;10.50;99.90;;;;;;5012794;28;20037;-69
2022/11/11 10:54:31;;;;;;;25.05;14.20;;;10.60;99.90;;;;;;5010786;28;20033;-69
2022/11/11 10:57:15;;;;;;;25.02;14.00;;;10.60;99.90;;;;;;5015864;28;20034;-69
2022/11/11 10:59:45;;;;;;;23.60;13.35;;;10.70;99.90;;;;;;5013180;28;20355;-69
2022/11/11 11:02:18;;;;;;;20.63;12.95;;;10.70;99.90;;;;;;5014088;28;20018;-69
2022/11/11 11:05:05;;;;;;;20.67;11.95;;;10.80;99.90;;;;;;5008742;28;20606;-69
2022/11/11 11:07:40;;;;;;;21.15;12.02;;;10.80;99.90;;;;;;5008328;28;20030;-69
2022/11/11 11:10:15;;;;;;;20.38;12.05;;;11.00;99.90;;;;;;5007889;28;20132;-69
2022/11/11 11:12:54;;;;;;;21.88;11.88;;;11.10;99.90;;;;;;5009845;28;20116;-69
2022/11/11 11:15:23;;;;;;;17.30;11.43;;;11.30;99.90;;;;;;5004799;28;20365;-69
2022/11/11 11:17:55;;;;;;;21.25;12.27;;;11.50;99.90;;;;;;5005414;28;20044;-69
2022/11/11 11:20:21;;;;;;;20.63;12.77;;;11.50;99.90;;;;;;5006875;28;20030;-70
2022/11/11 11:22:58;;;;;;;21.00;11.40;;;11.60;99.90;;;;;;5016677;28;20389;-70
2022/11/11 11:25:25;;;;;;;20.77;11.43;;;11.60;99.90;;;;;;5008722;28;20053;-69
2022/11/11 11:28:03;;;;;;;18.45;10.73;;;11.70;99.90;;;;;;5014020;28;20041;-69
2022/11/11 11:30:28;;;;;;;18.08;10.65;;;11.60;99.90;;;;;;5011852;28;20045;-69
2022/11/11 11:32:59;;;;;;;17.00;9.75;;;11.70;99.90;;;;;;5020267;28;20044;-69
2022/11/11 11:35:37;;;;;;;19.98;9.93;;;11.80;99.90;;;;;;5011656;28;20502;-69
2022/11/11 11:38:08;;;;;;;14.13;9.75;;;11.80;99.90;;;;;;5013291;28;20479;-69
2022/11/11 11:40:46;;;;;;;15.10;10.05;;;11.90;99.90;;;;;;5007390;28;20029;-69
2022/11/11 11:43:32;;;;;;;17.30;9.32;;;11.90;99.90;;;;;;5022819;28;20252;-69
2022/11/11 11:46:01;;;;;;;15.35;8.88;;;11.90;99.90;;;;;;5011986;28;20259;-69
2022/11/11 11:48:39;;;;;;;17.85;9.30;;;11.90;99.90;;;;;;4667150;28;9999669;-69
2022/11/11 11:51:43;;;;;;;15.93;9.05;;;11.90;99.90;;;;;;5004906;28;20580;-69
2022/11/11 11:54:24;;;;;;;13.93;8.32;;;12.00;99.90;;;;;;5026021;28;20045;-69
2022/11/11 11:56:53;;;;;;;14.93;8.05;;;12.10;99.90;;;;;;5011495;28;20025;-69
2022/11/11 11:59:50;;;;;;;12.60;7.55;;;12.20;99.90;;;;;;5012917;28;21867;-70
2022/11/11 12:02:56;;;;;;;12.05;7.60;;;12.20;99.90;;;;;;5014977;28;20120;-69
2022/11/11 12:05:31;;;;;;;11.20;7.05;;;12.30;99.90;;;;;;5011289;28;20026;-69
2022/11/11 12:08:21;;;;;;;12.32;7.28;;;12.40;99.90;;;;;;5012595;28;20468;-69
2022/11/11 12:11:05;;;;;;;11.18;6.82;;;12.50;99.90;;;;;;5015777;28;20029;-70
2022/11/11 12:13:42;;;;;;;13.95;6.57;;;12.50;99.90;;;;;;5013206;28;20030;-69
2022/11/11 12:16:29;;;;;;;11.70;6.85;;;12.60;99.90;;;;;;5007951;28;20494;-69
2022/11/11 12:19:15;;;;;;;9.23;5.97;;;12.70;99.90;;;;;;5014371;28;20041;-69
2022/11/11 12:22:02;;;;;;;11.25;6.15;;;12.80;99.90;;;;;;5007941;28;20054;-69
2022/11/11 12:24:34;;;;;;;11.10;6.85;;;12.80;99.90;;;;;;5009598;28;20475;-69
2022/11/11 12:27:14;;;;;;;10.05;6.20;;;12.90;99.90;;;;;;5014148;28;20535;-69
2022/11/11 12:30:04;;;;;;;10.63;5.85;;;13.00;99.90;;;;;;5012328;28;20038;-69
2022/11/11 12:32:47;;;;;;;10.45;5.57;;;13.00;99.90;;;;;;5013474;28;20368;-69
2022/11/11 12:35:47;;;;;;;9.57;5.30;;;13.00;99.90;;;;;;5010941;28;20041;-69
2022/11/11 12:38:42;;;;;;;9.65;5.40;;;13.10;99.90;;;;;;5007607;28;20207;-69
2022/11/11 12:41:15;;;;;;;9.27;5.18;;;13.10;99.90;;;;;;5013106;28;20048;-69
2022/11/11 12:43:53;;;;;;;9.23;4.90;;;13.20;99.90;;;;;;5012935;28;20530;-69
2022/11/11 12:46:49;;;;;;;9.55;5.38;;;13.30;99.90;;;;;;5005705;28;20025;-69
2022/11/11 12:49:40;;;;;;;9.77;5.10;;;13.30;99.90;;;;;;5007431;28;20080;-69
2022/11/11 12:52:18;;;;;;;10.38;4.50;;;13.30;99.90;;;;;;5017512;28;20505;-69
2022/11/11 12:54:58;;;;;;;9.27;4.40;;;13.30;99.90;;;;;;5008027;28;20445;-69
2022/11/11 12:57:55;;;;;;;11.27;4.22;;;13.40;99.90;;;;;;5011033;28;20033;-69
2022/11/11 13:00:23;;;;;;;7.82;4.40;;;13.50;99.90;;;;;;5013847;28;20141;-69
2022/11/11 13:03:17;;;;;;;11.10;4.43;;;13.50;99.90;;;;;;5009824;28;20037;-69
2022/11/11 13:05:51;;;;;;;8.45;4.25;;;13.50;99.90;;;;;;4316475;28;10000790;-68
2022/11/11 13:08:25;;;;;;;11.48;5.38;;;13.50;99.90;;;;;;5014436;28;20458;-68
2022/11/11 13:11:11;;;;;;;9.18;4.90;;;13.60;99.90;;;;;;5013954;28;20037;-69
2022/11/11 13:13:53;;;;;;;10.55;4.68;;;;;;;;;;5010819;28;20026;-70
2022/11/11 13:16:22;;;;;;;11.48;5.28;;;13.50;99.90;;;;;;5006020;28;20721;-70
2022/11/11 13:18:59;;;;;;;11.35;5.32;;;13.50;99.90;;;;;;5010973;28;20076;-70
2022/11/11 13:21:53;;;;;;;10.52;5.03;;;13.60;99.90;;;;;;5017218;28;20037;-70
2022/11/11 13:24:23;;;;;;;10.88;6.20;;;13.50;99.90;;;;;;5007007;28;20120;-70
2022/11/11 13:26:56;;;;;;;9.18;4.88;;;13.50;99.90;;;;;;5010528;28;20254;-70
2022/11/11 13:29:43;;;;;;;7.95;5.05;;;13.50;99.90;;;;;;5013386;28;20049;-70
2022/11/11 13:32:14;;;;;;;7.63;4.35;;;13.40;99.90;;;;;;5005492;28;20478;-70
2022/11/11 13:34:41;;;;;;;8.20;4.07;;;13.40;99.90;;;;;;5018674;28;20018;-70
2022/11/11 13:37:09;;;;;;;9.30;4.82;;;13.40;99.90;;;;;;5008762;28;20076;-70
2022/11/11 13:39:43;;;;;;;9.20;4.97;;;13.40;99.90;;;;;;5011839;28;20078;-70
2022/11/11 13:42:12;;;;;;;10.30;5.68;;;13.30;99.90;;;;;;5009884;28;20041;-70
2022/11/11 13:44:50;;;;;;;12.10;5.90;;;13.30;99.90;;;;;;5015902;28;20026;-70
2022/11/11 13:47:32;;;;;;;10.85;5.30;;;13.20;99.90;;;;;;5014115;28;20030;-70
2022/11/11 13:50:18;;;;;;;12.97;6.07;;;13.20;99.90;;;;;;5007692;28;20121;-70
2022/11/11 13:53:01;;;;;;;10.77;5.10;;;13.10;99.90;;;;;;5005279;28;20092;-71
2022/11/11 13:55:40;;;;;;;13.65;7.00;;;13.10;99.90;;;;;;5011398;28;20033;-70
2022/11/11 13:58:16;;;;;;;15.02;7.05;;;13.20;99.90;;;;;;5009713;28;20597;-70
2022/11/11 14:00:42;;;;;;;10.95;5.25;;;13.10;99.90;;;;;;5016209;28;20033;-70
2022/11/11 14:03:17;;;;;;;10.52;6.13;;;13.10;99.90;;;;;;5008511;28;20372;-70
2022/11/11 14:05:43;;;;;;;11.25;6.15;;;13.00;99.90;;;;;;5017687;28;20366;-70
2022/11/11 14:08:09;;;;;;;14.65;7.40;;;12.90;99.90;;;;;;5019245;28;20030;-70
2022/11/11 14:10:35;;;;;;;17.90;7.55;;;12.90;99.90;;;;;;5016137;28;20091;-70
2022/11/11 14:13:25;;;;;;;18.02;7.72;;;12.90;99.90;;;;;;5013964;28;20041;-70